Temp Hi Low Out Dew Wind Wind Wind Hi Hi Wind Heat THW THSW Rain Solar Solar Hi Solar UV UV Hi Heat Cool In In In In In In Air Wind Wind ISS Arc.
Date Time Out Temp Temp Hum Pt. Speed Dir Run Speed Dir Chill Index Index Index Bar Rain Rate Rad. Energy Rad. Index Dose UV D-D D-D Temp Hum Dew Heat EMC Density ET Samp Tx Recept Int.
------------------------------------------------------------------------------------------------------------------------------------------------------------------------------------------------------------------------------------------------------------------------
9/04/26 12:10a 55.8 55.8 55.7 95 54.4 1.0 S 0.17 4.0 S 55.8 56.0 56.0 53.7 29.759 0.02 0.35 0 0.00 0 0.0 0.00 0.0 0.064 0.000 71.5 56 55.0 70.8 10.32 .0732 0.000 202 7 100.0 10
9/04/26 12:20a 55.8 55.8 55.7 95 54.4 1.0 S 0.17 6.0 ESE 55.8 56.0 56.0 53.7 29.758 0.01 0.10 0 0.00 0 0.0 0.00 0.0 0.064 0.000 71.5 56 55.0 70.8 10.32 .0732 0.000 203 7 100.0 10
9/04/26 12:30a 55.6 55.8 55.6 95 54.2 1.0 ESE 0.17 6.0 ESE 55.6 55.8 55.8 53.5 29.757 0.00 0.00 0 0.00 0 0.0 0.00 0.0 0.065 0.000 71.5 56 55.0 70.8 10.32 .0732 0.000 202 7 100.0 10
9/04/26 12:40a 55.5 55.7 55.5 96 54.4 1.0 SSE 0.17 6.0 S 55.5 55.7 55.7 53.4 29.754 0.00 0.00 0 0.00 0 0.0 0.00 0.0 0.066 0.000 71.5 56 55.0 70.8 10.32 .0732 0.000 204 7 100.0 10
9/04/26 12:50a 55.4 55.5 55.4 96 54.3 1.0 ESE 0.17 8.0 ESE 55.4 55.6 55.6 53.3 29.754 0.00 0.00 0 0.00 0 0.0 0.00 0.0 0.067 0.000 71.4 56 54.9 70.7 10.32 .0732 0.000 204 7 100.0 10
9/04/26 1:00a 55.3 55.4 55.2 96 54.2 2.0 E 0.33 7.0 E 55.3 55.5 55.5 53.2 29.753 0.00 0.00 0 0.00 0 0.0 0.00 0.0 0.067 0.000 71.4 56 54.9 70.7 10.32 .0732 0.000 203 7 100.0 10
9/04/26 1:10a 55.2 55.3 55.1 96 54.1 1.0 E 0.17 6.0 E 55.2 55.4 55.4 53.1 29.760 0.00 0.00 0 0.00 0 0.0 0.00 0.0 0.068 0.000 71.4 56 54.9 70.7 10.32 .0732 0.000 202 7 100.0 10
9/04/26 1:20a 55.3 55.4 55.2 96 54.2 2.0 E 0.33 8.0 E 55.3 55.5 55.5 53.2 29.760 0.00 0.00 0 0.00 0 0.0 0.00 0.0 0.067 0.000 71.5 56 55.0 70.8 10.32 .0732 0.000 203 7 100.0 10
9/04/26 1:30a 55.4 55.4 55.3 96 54.3 2.0 E 0.33 10.0 E 55.4 55.6 55.6 53.3 29.761 0.01 0.00 0 0.00 0 0.0 0.00 0.0 0.067 0.000 71.5 56 55.0 70.8 10.32 .0732 0.000 203 7 100.0 10
9/04/26 1:40a 55.3 55.4 55.3 96 54.2 2.0 E 0.33 6.0 ENE 55.3 55.5 55.5 53.2 29.764 0.01 0.04 0 0.00 0 0.0 0.00 0.0 0.067 0.000 71.5 56 55.0 70.8 10.32 .0732 0.000 202 7 100.0 10
9/04/26 1:50a 55.3 55.4 55.3 96 54.2 2.0 E 0.33 10.0 ESE 55.3 55.5 55.5 53.2 29.763 0.00 0.04 0 0.00 0 0.0 0.00 0.0 0.067 0.000 71.4 56 54.9 70.7 10.32 .0732 0.000 203 7 100.0 10
9/04/26 2:00a 55.3 55.4 55.2 96 54.2 2.0 E 0.33 10.0 ESE 55.3 55.5 55.5 53.2 29.760 0.00 0.00 0 0.00 0 0.0 0.00 0.0 0.067 0.000 71.4 56 54.9 70.7 10.32 .0732 0.000 202 7 100.0 10
9/04/26 2:10a 55.2 55.3 55.2 96 54.1 2.0 E 0.33 8.0 E 55.2 55.4 55.4 53.1 29.760 0.00 0.00 0 0.00 0 0.0 0.00 0.0 0.068 0.000 71.4 56 54.9 70.7 10.32 .0732 0.000 204 7 100.0 10
9/04/26 2:20a 55.3 55.3 55.2 96 54.2 2.0 SSW 0.33 7.0 E 55.3 55.5 55.5 53.2 29.758 0.00 0.00 0 0.00 0 0.0 0.00 0.0 0.067 0.000 71.4 56 54.9 70.7 10.32 .0732 0.000 204 7 100.0 10
9/04/26 2:30a 55.4 55.4 55.3 96 54.3 1.0 E 0.17 11.0 ESE 55.4 55.6 55.6 53.3 29.760 0.03 0.32 0 0.00 0 0.0 0.00 0.0 0.067 0.000 71.3 56 54.8 70.5 10.32 .0733 0.000 202 7 100.0 10
9/04/26 2:40a 55.3 55.4 55.3 96 54.2 2.0 E 0.33 8.0 E 55.3 55.5 55.5 53.2 29.754 0.06 1.01 0 0.00 0 0.0 0.00 0.0 0.067 0.000 71.3 56 54.8 70.5 10.32 .0732 0.000 201 7 100.0 10
9/04/26 2:50a 55.2 55.3 55.2 96 54.1 2.0 E 0.33 6.0 NE 55.2 55.4 55.4 53.1 29.752 0.02 0.29 0 0.00 0 0.0 0.00 0.0 0.068 0.000 71.3 56 54.8 70.5 10.32 .0732 0.000 203 7 100.0 10
9/04/26 3:00a 55.2 55.3 55.2 96 54.1 2.0 E 0.33 6.0 ESE 55.2 55.4 55.4 53.1 29.750 0.00 0.04 0 0.00 0 0.0 0.00 0.0 0.068 0.000 71.3 56 54.8 70.5 10.32 .0732 0.000 202 7 100.0 10
9/04/26 3:10a 55.2 55.3 55.2 96 54.1 3.0 E 0.50 10.0 E 55.2 55.4 55.4 53.1 29.746 0.01 0.04 0 0.00 0 0.0 0.00 0.0 0.068 0.000 71.3 56 54.8 70.5 10.32 .0732 0.000 200 7 100.0 10
9/04/26 3:20a 55.3 55.3 55.2 96 54.2 2.0 E 0.33 9.0 ENE 55.3 55.5 55.5 53.2 29.749 0.00 0.00 0 0.00 0 0.0 0.00 0.0 0.067 0.000 71.2 56 54.7 70.4 10.33 .0732 0.000 202 7 100.0 10
9/04/26 3:30a 55.3 55.3 55.2 97 54.5 3.0 E 0.50 9.0 ENE 55.3 55.6 55.6 53.3 29.751 0.02 0.18 0 0.00 0 0.0 0.00 0.0 0.067 0.000 71.2 56 54.7 70.4 10.33 .0733 0.000 205 7 100.0 10
9/04/26 3:40a 55.2 55.3 55.2 97 54.4 2.0 E 0.33 7.0 E 55.2 55.5 55.5 53.2 29.753 0.06 1.93 0 0.00 0 0.0 0.00 0.0 0.068 0.000 71.2 56 54.7 70.4 10.33 .0733 0.000 203 7 100.0 10
9/04/26 3:50a 55.2 55.3 55.1 97 54.4 5.0 E 0.83 11.0 ENE 54.3 55.5 54.6 52.3 29.742 0.10 2.31 0 0.00 0 0.0 0.00 0.0 0.068 0.000 71.2 56 54.7 70.4 10.33 .0732 0.000 203 7 100.0 10
9/04/26 4:00a 55.2 55.2 55.1 97 54.4 4.0 E 0.67 11.0 ENE 54.8 55.5 55.1 52.8 29.749 0.03 0.64 0 0.00 0 0.0 0.00 0.0 0.068 0.000 71.2 56 54.7 70.4 10.33 .0732 0.000 201 7 100.0 10
9/04/26 4:10a 55.2 55.2 55.1 97 54.4 3.0 E 0.50 12.0 E 55.2 55.5 55.5 53.2 29.752 0.04 0.34 0 0.00 0 0.0 0.00 0.0 0.068 0.000 71.2 56 54.7 70.4 10.33 .0733 0.000 201 7 100.0 10
9/04/26 4:20a 55.3 55.3 55.2 97 54.5 4.0 E 0.67 11.0 E 55.0 55.6 55.3 53.0 29.753 0.06 0.41 0 0.00 0 0.0 0.00 0.0 0.067 0.000 71.2 56 54.7 70.4 10.33 .0733 0.000 202 7 100.0 10
9/04/26 4:30a 55.2 55.3 55.2 97 54.4 4.0 E 0.67 11.0 NE 54.8 55.5 55.1 52.8 29.744 0.22 3.11 0 0.00 0 0.0 0.00 0.0 0.068 0.000 71.1 56 54.6 70.2 10.33 .0733 0.000 203 7 100.0 10
9/04/26 4:40a 55.3 55.3 55.1 97 54.5 4.0 E 0.67 14.0 ENE 55.0 55.6 55.3 53.0 29.757 0.03 0.85 0 0.00 0 0.0 0.00 0.0 0.067 0.000 71.1 56 54.6 70.2 10.33 .0733 0.000 204 7 100.0 10
9/04/26 4:50a 56.0 56.1 55.3 97 55.2 5.0 S 0.83 12.0 S 55.3 56.3 55.6 53.3 29.764 0.01 0.15 0 0.00 0 0.0 0.00 0.0 0.063 0.000 71.1 56 54.6 70.2 10.33 .0733 0.000 201 7 100.0 10
9/04/26 5:00a 56.7 56.7 56.0 97 55.9 6.0 S 1.00 23.0 S 55.6 57.0 55.9 53.6 29.766 0.00 0.00 0 0.00 0 0.0 0.00 0.0 0.058 0.000 71.1 56 54.6 70.2 10.33 .0733 0.000 202 7 100.0 10
9/04/26 5:10a 56.9 56.9 56.7 97 56.1 4.0 S 0.67 18.0 SSE 56.9 57.2 57.2 54.9 29.771 0.00 0.00 0 0.00 0 0.0 0.00 0.0 0.056 0.000 71.1 56 54.6 70.2 10.33 .0733 0.000 202 7 100.0 10
9/04/26 5:20a 57.2 57.2 56.9 97 56.4 6.0 S 1.00 19.0 SSE 56.2 57.5 56.5 54.2 29.772 0.00 0.00 0 0.00 0 0.0 0.00 0.0 0.054 0.000 71.0 56 54.5 70.1 10.33 .0733 0.000 204 7 100.0 10
9/04/26 5:30a 57.5 57.5 57.2 97 56.7 6.0 S 1.00 16.0 S 56.6 57.8 56.9 54.6 29.775 0.00 0.00 0 0.00 0 0.0 0.00 0.0 0.052 0.000 71.0 56 54.5 70.1 10.33 .0733 0.000 203 7 100.0 10
9/04/26 5:40a 57.8 57.8 57.5 96 56.7 7.0 S 1.17 18.0 SSE 56.6 58.1 56.9 54.6 29.775 0.00 0.00 0 0.00 0 0.0 0.00 0.0 0.050 0.000 71.0 56 54.5 70.1 10.33 .0733 0.000 203 7 100.0 10
9/04/26 5:50a 57.9 57.9 57.8 96 56.8 8.0 S 1.33 17.0 SSE 56.0 58.2 56.3 54.1 29.775 0.04 0.87 0 0.00 0 0.0 0.00 0.0 0.049 0.000 71.0 56 54.5 70.1 10.33 .0733 0.000 203 7 100.0 10
9/04/26 6:00a 57.9 57.9 57.8 96 56.8 7.0 S 1.17 17.0 S 56.7 58.2 57.0 54.7 29.778 0.02 0.68 0 0.00 0 0.0 0.00 0.0 0.049 0.000 71.0 56 54.5 70.1 10.33 .0734 0.000 205 7 100.0 10
9/04/26 6:10a 57.8 57.9 57.8 96 56.7 8.0 S 1.33 20.0 SSE 55.9 58.1 56.2 54.0 29.781 0.03 0.68 0 0.00 0 0.0 0.00 0.0 0.050 0.000 70.9 56 54.4 70.0 10.33 .0734 0.000 201 7 100.0 10
9/04/26 6:20a 57.8 57.9 57.7 96 56.7 9.0 S 1.50 24.0 SSE 55.1 58.1 55.4 53.3 29.787 0.00 0.04 0 0.00 0 0.0 0.00 0.0 0.050 0.000 70.9 56 54.4 70.0 10.33 .0734 0.000 203 7 100.0 10
9/04/26 6:30a 57.7 57.8 57.6 96 56.6 10.0 S 1.67 21.0 S 54.3 58.0 54.6 52.6 29.789 0.01 0.04 0 0.00 0 0.0 0.00 0.0 0.051 0.000 70.9 56 54.4 70.0 10.33 .0734 0.000 198 7 100.0 10
9/04/26 6:40a 57.1 57.6 57.1 96 56.0 10.0 S 1.67 20.0 SSE 53.6 57.3 53.8 51.8 29.797 0.00 0.00 0 0.00 0 0.0 0.00 0.0 0.055 0.000 70.9 56 54.4 70.0 10.33 .0734 0.000 205 7 100.0 10
9/04/26 6:50a 57.1 57.2 57.0 96 56.0 6.0 S 1.00 13.0 S 56.1 57.3 56.3 54.0 29.800 0.01 0.00 0 0.00 0 0.0 0.00 0.0 0.055 0.000 70.9 56 54.4 70.0 10.33 .0734 0.000 203 7 100.0 10
9/04/26 7:00a 57.0 57.2 57.0 96 55.9 3.0 S 0.50 8.0 SSW 57.0 57.2 57.2 54.9 29.803 0.00 0.00 2 0.03 5 0.0 0.00 0.0 0.056 0.000 70.9 56 54.4 70.0 10.33 .0734 0.000 203 7 100.0 10
9/04/26 7:10a 57.2 57.3 57.0 96 56.1 3.0 S 0.50 11.0 ESE 57.2 57.5 57.5 55.5 29.808 0.00 0.00 9 0.13 12 0.0 0.00 0.0 0.054 0.000 70.9 56 54.4 70.0 10.33 .0734 0.000 204 7 100.0 10
9/04/26 7:20a 57.3 57.3 57.1 96 56.2 3.0 S 0.50 14.0 S 57.3 57.6 57.6 56.2 29.812 0.00 0.00 10 0.14 14 0.0 0.00 0.0 0.053 0.000 70.9 56 54.4 70.0 10.33 .0735 0.000 203 7 100.0 10
9/04/26 7:30a 57.4 57.5 57.2 96 56.3 4.0 S 0.67 14.0 S 57.4 57.7 57.7 56.2 29.819 0.00 0.00 8 0.11 12 0.0 0.00 0.0 0.053 0.000 70.9 56 54.4 70.0 10.33 .0735 0.000 202 7 100.0 10
9/04/26 7:40a 57.2 57.3 57.0 96 56.1 4.0 S 0.67 11.0 SSE 57.2 57.5 57.5 56.2 29.822 0.01 0.00 13 0.19 16 0.0 0.00 0.0 0.054 0.000 70.9 56 54.4 70.0 10.33 .0735 0.000 203 7 100.0 10
9/04/26 7:50a 57.1 57.2 57.1 96 56.0 3.0 S 0.50 12.0 S 57.1 57.3 57.3 56.5 29.826 0.01 0.06 23 0.33 32 0.0 0.00 0.0 0.055 0.000 70.9 56 54.4 70.0 10.33 .0735 0.000 204 7 100.0 10
9/04/26 8:00a 56.8 57.2 56.8 96 55.7 1.0 SSE 0.17 8.0 SSE 56.8 57.0 57.0 56.4 29.829 0.00 0.04 30 0.43 33 0.0 0.00 0.0 0.057 0.000 70.9 56 54.4 70.0 10.33 .0735 0.000 179 7 90.4 10
9/04/26 8:10a 56.4 56.8 56.4 96 55.3 1.0 ESE 0.17 7.0 ESE 56.4 56.6 56.6 55.8 29.833 0.03 0.15 27 0.39 33 0.0 0.00 0.0 0.060 0.000 70.9 56 54.4 70.0 10.33 .0735 0.000 202 7 100.0 10
9/04/26 8:20a 56.1 56.4 56.1 96 55.0 2.0 E 0.33 7.0 E 56.1 56.3 56.3 56.1 29.834 0.02 0.17 43 0.62 65 0.0 0.00 0.0 0.062 0.000 71.0 56 54.5 70.1 10.33 .0735 0.000 200 7 100.0 10
9/04/26 8:30a 56.1 56.2 56.0 96 55.0 1.0 ESE 0.17 6.0 E 56.1 56.3 56.3 57.5 29.836 0.00 0.05 79 1.13 84 0.0 0.00 0.0 0.062 0.000 71.0 56 54.5 70.1 10.33 .0735 0.000 203 7 100.0 10
9/04/26 8:40a 56.2 56.2 56.1 96 55.1 1.0 E 0.17 4.0 ENE 56.2 56.4 56.4 57.2 29.838 0.00 0.00 70 1.00 79 0.0 0.00 0.0 0.061 0.000 71.0 56 54.5 70.1 10.33 .0735 0.000 202 7 100.0 10
9/04/26 8:50a 56.1 56.2 56.1 96 55.0 1.0 E 0.17 4.0 ESE 56.1 56.3 56.3 57.4 29.844 0.00 0.00 81 1.16 83 0.0 0.00 0.0 0.062 0.000 71.1 56 54.6 70.2 10.33 .0735 0.000 204 7 100.0 10
9/04/26 9:00a 56.0 56.1 56.0 96 54.9 1.0 E 0.17 7.0 SE 56.0 56.2 56.2 56.5 29.847 0.01 0.00 62 0.89 81 0.0 0.00 0.0 0.063 0.000 71.1 56 54.6 70.2 10.33 .0735 0.001 203 7 100.0 10
9/04/26 9:10a 55.9 56.0 55.9 96 54.8 1.0 E 0.17 6.0 E 55.9 56.1 56.1 55.8 29.844 0.03 0.42 48 0.69 53 0.0 0.00 0.0 0.063 0.000 71.1 56 54.6 70.2 10.33 .0735 0.000 204 7 100.0 10
9/04/26 9:20a 56.0 56.0 55.9 97 55.2 1.0 E 0.17 6.0 ENE 56.0 56.3 56.3 56.5 29.843 0.01 0.14 63 0.90 74 0.0 0.00 0.0 0.063 0.000 71.1 56 54.6 70.2 10.33 .0735 0.000 204 7 100.0 10
9/04/26 9:30a 56.1 56.1 56.0 97 55.3 2.0 E 0.33 8.0 ESE 56.1 56.4 56.4 57.3 29.845 0.01 0.05 88 1.26 95 0.0 0.00 0.0 0.062 0.000 71.1 56 54.6 70.2 10.33 .0735 0.000 203 7 100.0 10
9/04/26 9:40a 56.2 56.2 56.1 97 55.4 1.0 E 0.17 8.0 NNE 56.2 56.5 56.5 58.2 29.847 0.02 0.22 115 1.65 134 0.5 0.04 0.6 0.061 0.000 71.1 56 54.6 70.2 10.33 .0735 0.000 202 7 100.0 10
9/04/26 9:50a 56.2 56.3 56.2 97 55.4 2.0 E 0.33 7.0 ENE 56.2 56.5 56.5 58.3 29.849 0.05 0.38 122 1.75 135 0.6 0.04 0.7 0.061 0.000 71.1 56 54.6 70.2 10.33 .0735 0.000 201 7 100.0 10
9/04/26 10:00a 56.3 56.4 56.2 97 55.5 2.0 E 0.33 8.0 E 56.3 56.6 56.6 58.3 29.853 0.02 0.31 122 1.75 128 0.7 0.05 0.8 0.060 0.000 71.2 56 54.7 70.4 10.33 .0735 0.002 202 7 100.0 10
9/04/26 10:10a 56.4 56.4 56.3 97 55.6 3.0 E 0.50 9.0 E 56.4 56.7 56.7 58.7 29.849 0.00 0.05 135 1.94 146 1.0 0.07 1.2 0.060 0.000 71.2 56 54.7 70.4 10.33 .0735 0.000 203 7 100.0 10
9/04/26 10:20a 56.4 56.5 56.4 97 55.6 3.0 E 0.50 9.0 ENE 56.4 56.7 56.7 58.8 29.851 0.00 0.00 140 2.01 156 1.3 0.09 1.3 0.060 0.000 71.3 56 54.8 70.5 10.32 .0735 0.000 202 7 100.0 10
9/04/26 10:30a 56.6 56.6 56.4 97 55.8 3.0 E 0.50 9.0 E 56.6 56.9 56.9 59.4 29.855 0.00 0.00 157 2.25 172 1.2 0.09 1.3 0.058 0.000 71.3 56 54.8 70.5 10.32 .0735 0.000 202 7 100.0 10
9/04/26 10:40a 56.5 56.6 56.5 97 55.7 2.0 E 0.33 8.0 E 56.5 56.8 56.8 57.8 29.858 0.00 0.00 107 1.53 142 0.9 0.06 1.1 0.059 0.000 71.4 56 54.9 70.7 10.32 .0735 0.000 201 7 100.0 10
9/04/26 10:50a 57.1 57.1 56.5 97 56.3 2.0 E 0.33 6.0 E 57.1 57.4 57.4 61.5 29.864 0.00 0.00 226 3.24 290 1.5 0.11 1.6 0.055 0.000 71.4 56 54.9 70.7 10.32 .0735 0.000 202 7 100.0 10
9/04/26 11:00a 57.2 57.3 57.1 97 56.4 1.0 E 0.17 6.0 ESE 57.2 57.5 57.5 60.5 29.870 0.01 0.00 183 2.62 227 1.2 0.09 1.6 0.054 0.000 71.4 56 54.9 70.7 10.32 .0735 0.003 203 7 100.0 10
9/04/26 11:10a 57.2 57.2 57.1 97 56.4 1.0 ESE 0.17 5.0 SSE 57.2 57.5 57.5 58.6 29.876 0.00 0.00 115 1.65 135 0.8 0.06 0.9 0.054 0.000 71.4 56 54.9 70.7 10.32 .0735 0.000 204 7 100.0 10
9/04/26 11:20a 57.4 57.4 57.1 97 56.6 1.0 E 0.17 4.0 ESE 57.4 57.7 57.7 59.8 29.875 0.00 0.00 152 2.18 197 1.2 0.09 1.5 0.053 0.000 71.4 56 54.9 70.7 10.32 .0735 0.000 204 7 100.0 10
9/04/26 11:30a 58.1 58.1 57.4 98 57.5 1.0 E 0.17 7.0 E 58.1 58.5 58.5 64.7 29.876 0.00 0.00 331 4.74 434 2.2 0.16 2.7 0.048 0.000 71.5 56 55.0 70.8 10.32 .0735 0.000 201 7 100.0 10
9/04/26 11:40a 58.7 58.7 58.2 97 57.9 1.0 E 0.17 5.0 E 58.7 59.1 59.1 65.1 29.882 0.00 0.00 323 4.63 424 2.2 0.16 2.7 0.044 0.000 71.5 56 55.0 70.8 10.32 .0735 0.000 202 7 100.0 10
9/04/26 11:50a 58.3 58.7 58.2 97 57.5 0.0 E 0.00 3.0 E 58.3 58.7 58.7 59.7 29.886 0.00 0.00 111 1.59 165 1.1 0.08 1.3 0.047 0.000 71.6 56 55.1 71.0 10.32 .0735 0.000 203 7 100.0 10
9/04/26 12:00p 58.3 58.4 58.2 98 57.7 0.0 E 0.00 3.0 E 58.3 58.7 58.7 61.6 29.888 0.00 0.00 189 2.71 204 1.6 0.11 1.7 0.047 0.000 71.6 56 55.1 71.0 10.32 .0735 0.004 201 7 100.0 10
9/04/26 12:10p 58.5 58.5 58.3 97 57.7 0.0 ESE 0.00 4.0 ESE 58.5 58.9 58.9 60.9 29.888 0.00 0.00 155 2.22 171 1.3 0.09 1.4 0.045 0.000 71.6 56 55.1 71.0 10.32 .0735 0.000 200 7 100.0 10
9/04/26 12:20p 58.4 58.5 58.3 98 57.8 1.0 ESE 0.17 3.0 ESE 58.4 58.8 58.8 61.4 29.888 0.01 0.00 179 2.57 285 1.5 0.11 2.3 0.046 0.000 71.6 56 55.1 71.0 10.32 .0735 0.000 202 7 100.0 10
9/04/26 12:30p 59.0 59.1 58.4 98 58.4 1.0 E 0.17 5.0 SSE 59.0 59.5 59.5 64.9 29.889 0.01 0.08 299 4.29 359 2.4 0.17 2.7 0.042 0.000 71.6 56 55.1 71.0 10.32 .0735 0.000 200 7 100.0 10
9/04/26 12:40p 59.6 59.6 59.0 98 59.0 0.0 E 0.00 3.0 ENE 59.6 60.1 60.1 67.2 29.891 0.00 0.00 386 5.53 541 2.9 0.21 3.7 0.038 0.000 71.7 56 55.2 71.1 10.32 .0735 0.000 202 7 100.0 10
9/04/26 12:50p 57.7 59.6 57.7 97 56.9 3.0 SSW 0.50 8.0 SSW 57.7 58.0 58.0 61.3 29.897 0.00 0.00 210 3.01 287 1.8 0.13 2.6 0.051 0.000 71.8 56 55.3 71.3 10.31 .0735 0.000 202 7 100.0 10
9/04/26 1:00p 57.9 57.9 57.6 97 57.1 2.0 SSW 0.33 6.0 SSE 57.9 58.2 58.2 63.1 29.900 0.00 0.00 283 4.06 366 2.2 0.16 2.6 0.049 0.000 71.8 56 55.3 71.3 10.31 .0735 0.005 199 7 100.0 10
9/04/26 1:10p 58.2 58.2 57.9 97 57.4 0.0 SSW 0.00 3.0 SSW 58.2 58.6 58.6 62.8 29.897 0.00 0.00 249 3.57 274 2.1 0.15 2.2 0.047 0.000 71.8 56 55.3 71.3 10.31 .0735 0.000 198 7 100.0 10
9/04/26 1:20p 60.7 60.7 58.2 99 60.4 0.0 E 0.00 6.0 E 60.7 61.3 61.3 72.2 29.896 0.00 0.00 911 13.06 1116 4.7 0.34 5.8 0.030 0.000 71.9 56 55.3 71.4 10.31 .0735 0.000 204 7 100.0 10
9/04/26 1:30p 61.5 61.6 60.7 98 60.9 1.0 E 0.17 8.0 E 61.5 62.2 62.2 72.8 29.898 0.00 0.00 621 8.90 816 4.4 0.31 4.8 0.024 0.000 72.0 56 55.4 71.6 10.31 .0735 0.000 201 7 100.0 10
9/04/26 1:40p 58.9 61.8 58.9 97 58.1 2.0 SSW 0.33 8.0 SE 58.9 59.3 59.3 64.0 29.901 0.00 0.00 271 3.88 621 2.6 0.19 4.4 0.042 0.000 72.0 57 55.9 71.7 10.47 .0735 0.000 203 7 100.0 10
9/04/26 1:50p 58.5 58.9 58.2 97 57.7 6.0 SSW 1.00 10.0 SSE 57.8 58.9 58.2 61.1 29.903 0.00 0.00 190 2.72 241 2.9 0.21 4.7 0.045 0.000 72.1 58 56.5 71.9 10.67 .0734 0.000 203 7 100.0 10
9/04/26 2:00p 58.3 58.4 58.1 97 57.5 7.0 SSW 1.17 11.0 S 57.2 58.7 57.6 62.4 29.901 0.00 0.00 280 4.01 306 2.1 0.15 2.5 0.047 0.000 72.0 58 56.4 71.7 10.67 .0734 0.010 203 7 100.0 10
9/04/26 2:10p 59.0 59.0 58.2 98 58.4 1.0 SSW 0.17 5.0 SSW 59.0 59.5 59.5 64.0 29.903 0.00 0.00 259 3.71 283 1.8 0.13 2.1 0.042 0.000 72.0 58 56.4 71.7 10.67 .0735 0.000 203 7 100.0 10
9/04/26 2:20p 60.6 60.6 58.9 98 60.0 2.0 E 0.33 8.0 ENE 60.6 61.2 61.2 69.7 29.900 0.00 0.00 460 6.59 570 3.4 0.24 5.3 0.031 0.000 72.1 58 56.5 71.9 10.67 .0734 0.000 201 7 100.0 10
9/04/26 2:30p 61.2 61.6 60.6 98 60.6 1.0 E 0.17 6.0 E 61.2 61.8 61.8 69.7 29.905 0.00 0.00 423 6.06 997 3.3 0.24 4.9 0.026 0.000 72.1 57 56.0 71.8 10.47 .0735 0.000 202 7 100.0 10
9/04/26 2:40p 59.4 61.2 59.4 97 58.5 2.0 S 0.33 6.0 S 59.4 59.9 59.9 62.2 29.912 0.00 0.00 164 2.35 221 1.3 0.09 1.8 0.039 0.000 72.2 57 56.1 72.0 10.46 .0735 0.000 202 7 100.0 10
9/04/26 2:50p 58.9 59.3 58.9 97 58.1 4.0 S 0.67 10.0 SSW 58.9 59.3 59.3 62.9 29.914 0.00 0.00 213 3.05 278 1.5 0.11 1.8 0.042 0.000 72.2 57 56.1 72.0 10.46 .0735 0.000 202 7 100.0 10
9/04/26 3:00p 58.9 59.0 58.6 97 58.1 6.0 S 1.00 10.0 SE 58.3 59.3 58.7 69.6 29.914 0.00 0.00 642 9.20 831 3.2 0.23 4.2 0.042 0.000 72.3 58 56.7 72.2 10.66 .0734 0.008 199 7 100.0 10
9/04/26 3:10p 59.0 59.1 58.8 97 58.2 5.0 SSW 0.83 8.0 SSW 58.8 59.4 59.2 70.3 29.915 0.00 0.00 808 11.58 867 3.8 0.27 4.1 0.042 0.000 72.3 58 56.7 72.2 10.66 .0734 0.000 202 7 100.0 10
9/04/26 3:20p 58.8 59.1 58.8 97 58.0 7.0 S 1.17 14.0 S 57.8 59.2 58.2 63.2 29.914 0.00 0.00 275 3.94 316 2.2 0.16 3.8 0.043 0.000 72.4 58 56.8 72.3 10.65 .0734 0.000 201 7 100.0 10
9/04/26 3:30p 59.0 59.2 58.9 97 58.2 9.0 S 1.50 12.0 SSE 56.5 59.4 56.9 68.5 29.915 0.00 0.00 861 12.34 905 3.2 0.23 3.4 0.042 0.000 72.5 58 56.9 72.5 10.65 .0734 0.000 203 7 100.0 10
9/04/26 3:40p 59.3 59.3 58.9 97 58.4 9.0 S 1.50 15.0 ESE 56.9 59.8 57.4 68.4 29.916 0.00 0.00 805 11.54 861 3.3 0.24 3.4 0.040 0.000 72.6 58 57.0 72.6 10.65 .0734 0.000 203 7 100.0 10
9/04/26 3:50p 59.3 59.3 59.1 97 58.4 10.0 S 1.67 15.0 SSE 56.2 59.8 56.7 66.4 29.913 0.00 0.00 724 10.38 737 3.0 0.21 3.1 0.040 0.000 72.7 58 57.1 72.8 10.64 .0734 0.000 204 7 100.0 10
9/04/26 4:00p 59.2 59.4 59.1 96 58.1 10.0 S 1.67 14.0 S 56.0 59.6 56.4 65.8 29.918 0.00 0.00 651 9.33 759 2.6 0.19 3.0 0.040 0.000 72.7 59 57.5 72.9 10.84 .0733 0.014 202 7 100.0 10
9/04/26 4:10p 59.6 59.6 59.3 96 58.5 10.0 S 1.67 15.0 SSE 56.5 60.0 56.9 67.0 29.914 0.00 0.00 700 10.03 742 2.6 0.19 2.7 0.038 0.000 72.7 59 57.5 72.9 10.84 .0733 0.000 202 7 100.0 10
9/04/26 4:20p 60.1 60.2 59.6 95 58.7 8.0 S 1.33 13.0 S 58.6 60.5 59.0 70.9 29.915 0.00 0.00 726 10.41 770 2.5 0.18 2.6 0.034 0.000 72.8 59 57.6 73.0 10.84 .0733 0.000 204 7 100.0 10
9/04/26 4:30p 59.7 60.1 59.7 95 58.3 11.0 S 1.83 19.0 SSE 56.0 60.1 56.4 66.5 29.918 0.00 0.00 666 9.55 719 2.3 0.16 2.4 0.037 0.000 72.9 58 57.3 73.1 10.63 .0733 0.000 203 7 100.0 10
9/04/26 4:40p 59.5 59.7 59.4 95 58.1 12.0 S 2.00 18.0 S 55.2 59.9 55.6 65.3 29.920 0.00 0.00 636 9.12 661 1.9 0.14 2.1 0.038 0.000 73.0 58 57.3 73.2 10.63 .0733 0.000 202 7 100.0 10
9/04/26 4:50p 59.9 59.9 59.4 95 58.5 8.0 S 1.33 14.0 S 58.4 60.3 58.8 69.1 29.923 0.00 0.00 571 8.19 642 1.6 0.11 1.8 0.035 0.000 73.2 58 57.5 73.5 10.62 .0733 0.000 204 7 100.0 10
9/04/26 5:00p 60.1 60.1 59.9 95 58.7 5.0 S 0.83 8.0 SSE 60.1 60.5 60.5 65.8 29.928 0.00 0.00 224 3.21 236 1.0 0.07 1.2 0.034 0.000 73.3 58 57.6 73.6 10.62 .0733 0.012 201 7 100.0 10
9/04/26 5:10p 60.2 60.2 60.1 94 58.5 4.0 S 0.67 8.0 SSE 60.2 60.6 60.6 65.1 29.929 0.00 0.00 196 2.81 202 0.7 0.05 0.7 0.033 0.000 73.5 58 57.8 73.9 10.61 .0733 0.000 199 7 100.0 10
9/04/26 5:20p 59.6 60.2 59.6 94 57.9 6.0 S 1.00 10.0 S 59.1 60.0 59.5 63.4 29.929 0.00 0.00 171 2.45 190 0.6 0.04 0.7 0.038 0.000 73.5 58 57.8 73.9 10.61 .0733 0.000 202 7 100.0 10
9/04/26 5:30p 59.7 59.7 59.5 95 58.3 4.0 SSW 0.67 7.0 S 59.7 60.1 60.1 63.9 29.929 0.00 0.00 160 2.29 162 0.5 0.04 0.5 0.037 0.000 73.6 58 57.9 74.0 10.61 .0732 0.000 205 7 100.0 10
9/04/26 5:40p 59.8 59.9 59.7 95 58.4 3.0 SSW 0.50 5.0 SW 59.8 60.2 60.2 63.8 29.933 0.00 0.00 149 2.14 155 0.0 0.00 0.0 0.036 0.000 73.6 58 57.9 74.0 10.61 .0732 0.000 201 7 100.0 10
9/04/26 5:50p 60.0 60.0 59.8 95 58.6 2.0 S 0.33 5.0 SSE 60.0 60.4 60.4 63.6 29.935 0.00 0.00 133 1.91 139 0.0 0.00 0.0 0.035 0.000 73.6 58 57.9 74.0 10.61 .0733 0.000 202 7 100.0 10
9/04/26 6:00p 60.2 60.3 60.0 95 58.8 1.0 SSW 0.17 4.0 SSW 60.2 60.6 60.6 64.1 29.938 0.00 0.00 135 1.94 155 0.0 0.00 0.0 0.033 0.000 73.6 58 57.9 74.0 10.61 .0733 0.003 202 7 100.0 10
9/04/26 6:10p 60.5 60.6 60.2 94 58.8 0.0 SE 0.00 2.0 SE 60.5 60.9 60.9 63.6 29.941 0.00 0.00 109 1.56 120 0.0 0.00 0.0 0.031 0.000 73.6 58 57.9 74.0 10.61 .0733 0.000 204 7 100.0 10
9/04/26 6:20p 60.6 60.6 60.5 94 58.9 0.0 SE 0.00 2.0 SE 60.6 61.0 61.0 63.5 29.945 0.00 0.00 101 1.45 113 0.0 0.00 0.0 0.031 0.000 73.5 58 57.8 73.9 10.61 .0733 0.000 204 7 100.0 10
9/04/26 6:30p 60.4 60.6 60.4 94 58.7 0.0 SE 0.00 2.0 SE 60.4 60.8 60.8 62.0 29.943 0.00 0.00 67 0.96 72 0.0 0.00 0.0 0.032 0.000 73.6 58 57.9 74.0 10.61 .0733 0.000 203 7 100.0 10
9/04/26 6:40p 60.1 60.4 60.1 93 58.1 2.0 SW 0.33 6.0 S 60.1 60.5 60.5 61.1 29.946 0.00 0.00 50 0.72 56 0.0 0.00 0.0 0.034 0.000 73.5 58 57.8 73.9 10.61 .0733 0.000 201 7 100.0 10
9/04/26 6:50p 59.8 60.1 59.8 93 57.8 0.0 SW 0.00 1.0 SW 59.8 60.2 60.2 60.2 29.949 0.00 0.00 36 0.52 46 0.0 0.00 0.0 0.036 0.000 73.5 58 57.8 73.9 10.61 .0733 0.000 203 7 100.0 10
9/04/26 7:00p 59.7 59.9 59.7 94 58.0 1.0 W 0.17 7.0 W 59.7 60.1 60.1 59.1 29.952 0.00 0.00 16 0.23 21 0.0 0.00 0.0 0.037 0.000 73.4 58 57.7 73.7 10.61 .0733 0.001 203 7 100.0 10
9/04/26 7:10p 59.8 59.9 59.7 94 58.1 4.0 W 0.67 8.0 NNE 59.8 60.2 60.2 59.0 29.953 0.00 0.00 11 0.16 12 0.0 0.00 0.0 0.036 0.000 73.4 58 57.7 73.7 10.61 .0733 0.000 199 7 100.0 10
9/04/26 7:20p 59.5 59.9 59.5 94 57.8 6.0 NE 1.00 12.0 NE 59.0 59.9 59.4 57.4 29.954 0.00 0.00 6 0.09 9 0.0 0.00 0.0 0.038 0.000 73.3 58 57.6 73.6 10.62 .0734 0.000 205 7 100.0 10
9/04/26 7:30p 59.1 59.5 59.1 94 57.4 5.0 NE 0.83 10.0 ENE 58.9 59.5 59.3 57.3 29.954 0.00 0.00 7 0.10 14 0.0 0.00 0.0 0.041 0.000 73.1 58 57.4 73.4 10.63 .0734 0.000 204 7 100.0 10
9/04/26 7:40p 58.9 59.1 58.9 94 57.2 5.0 NE 0.83 10.0 NE 58.7 59.3 59.1 57.2 29.954 0.00 0.00 10 0.14 16 0.0 0.00 0.0 0.042 0.000 73.0 58 57.3 73.2 10.63 .0734 0.000 203 7 100.0 10
9/04/26 7:50p 58.7 59.0 58.7 95 57.3 4.0 NE 0.67 8.0 NNE 58.7 59.1 59.1 57.0 29.955 0.00 0.00 1 0.01 5 0.0 0.00 0.0 0.044 0.000 73.0 58 57.3 73.2 10.63 .0734 0.000 203 7 100.0 10
9/04/26 8:00p 58.6 58.8 58.6 95 57.2 4.0 NE 0.67 8.0 NNE 58.6 59.0 59.0 56.8 29.956 0.00 0.00 0 0.00 0 0.0 0.00 0.0 0.044 0.000 72.9 58 57.3 73.1 10.63 .0734 0.000 202 7 100.0 10
9/04/26 8:10p 58.4 58.6 58.4 95 57.0 3.0 NE 0.50 9.0 NE 58.4 58.7 58.7 56.5 29.959 0.00 0.00 0 0.00 0 0.0 0.00 0.0 0.046 0.000 72.9 58 57.3 73.1 10.63 .0734 0.000 203 7 100.0 10
9/04/26 8:20p 58.2 58.4 58.2 95 56.8 2.0 NE 0.33 4.0 NE 58.2 58.5 58.5 56.3 29.960 0.00 0.00 0 0.00 0 0.0 0.00 0.0 0.047 0.000 72.8 58 57.2 72.9 10.64 .0735 0.000 202 7 100.0 10
9/04/26 8:30p 58.1 58.3 58.1 95 56.7 1.0 NE 0.17 4.0 NE 58.1 58.4 58.4 56.2 29.964 0.00 0.00 0 0.00 0 0.0 0.00 0.0 0.048 0.000 72.8 58 57.2 72.9 10.64 .0735 0.000 198 7 100.0 10
9/04/26 8:40p 58.1 58.2 58.1 95 56.7 1.0 NE 0.17 3.0 NE 58.1 58.4 58.4 56.2 29.968 0.00 0.00 0 0.00 0 0.0 0.00 0.0 0.048 0.000 72.8 58 57.2 72.9 10.64 .0735 0.000 204 7 100.0 10
9/04/26 8:50p 58.3 58.3 58.1 95 56.9 1.0 ENE 0.17 4.0 ENE 58.3 58.6 58.6 56.4 29.973 0.00 0.00 0 0.00 0 0.0 0.00 0.0 0.047 0.000 72.8 58 57.2 72.9 10.64 .0735 0.000 201 7 100.0 10
9/04/26 9:00p 58.2 58.3 58.2 95 56.8 1.0 ENE 0.17 3.0 ENE 58.2 58.5 58.5 56.3 29.972 0.00 0.00 0 0.00 0 0.0 0.00 0.0 0.047 0.000 72.8 58 57.2 72.9 10.64 .0735 0.000 202 7 100.0 10
9/04/26 9:10p 58.2 58.3 58.2 95 56.8 2.0 ENE 0.33 4.0 ENE 58.2 58.5 58.5 56.3 29.976 0.00 0.00 0 0.00 0 0.0 0.00 0.0 0.047 0.000 72.8 58 57.2 72.9 10.64 .0735 0.000 203 7 100.0 10
9/04/26 9:20p 58.2 58.3 58.1 95 56.8 1.0 E 0.17 4.0 ENE 58.2 58.5 58.5 56.3 29.979 0.00 0.00 0 0.00 0 0.0 0.00 0.0 0.047 0.000 72.7 58 57.1 72.8 10.64 .0735 0.000 202 7 100.0 10
9/04/26 9:30p 58.1 58.2 58.1 95 56.7 2.0 E 0.33 5.0 E 58.1 58.4 58.4 56.2 29.980 0.00 0.00 0 0.00 0 0.0 0.00 0.0 0.048 0.000 72.8 58 57.2 72.9 10.64 .0735 0.000 202 7 100.0 10
9/04/26 9:40p 58.1 58.2 58.1 95 56.7 2.0 E 0.33 6.0 E 58.1 58.4 58.4 56.2 29.981 0.00 0.00 0 0.00 0 0.0 0.00 0.0 0.048 0.000 72.8 58 57.2 72.9 10.64 .0735 0.000 203 7 100.0 10
9/04/26 9:50p 58.0 58.1 58.0 95 56.6 1.0 E 0.17 4.0 ENE 58.0 58.3 58.3 56.1 29.981 0.00 0.00 0 0.00 0 0.0 0.00 0.0 0.049 0.000 72.7 58 57.1 72.8 10.64 .0735 0.000 203 7 100.0 10
9/04/26 10:00p 58.0 58.1 57.9 95 56.6 2.0 E 0.33 4.0 ENE 58.0 58.3 58.3 56.1 29.986 0.00 0.00 0 0.00 0 0.0 0.00 0.0 0.049 0.000 72.7 58 57.1 72.8 10.64 .0735 0.000 204 7 100.0 10
9/04/26 10:10p 58.1 58.1 58.0 95 56.7 1.0 ENE 0.17 3.0 ENE 58.1 58.4 58.4 56.2 29.988 0.00 0.00 0 0.00 0 0.0 0.00 0.0 0.048 0.000 72.7 58 57.1 72.8 10.64 .0735 0.000 203 7 100.0 10
9/04/26 10:20p 58.1 58.2 58.0 95 56.7 0.0 NE 0.00 2.0 NE 58.1 58.4 58.4 56.2 29.991 0.00 0.00 0 0.00 0 0.0 0.00 0.0 0.048 0.000 72.7 58 57.1 72.8 10.64 .0736 0.000 202 7 100.0 10
9/04/26 10:30p 58.0 58.1 57.9 95 56.6 0.0 NE 0.00 3.0 NE 58.0 58.3 58.3 56.1 29.991 0.00 0.00 0 0.00 0 0.0 0.00 0.0 0.049 0.000 72.6 58 57.0 72.6 10.65 .0736 0.000 202 7 100.0 10
9/04/26 10:40p 57.9 58.0 57.9 95 56.5 0.0 --- 0.00 0.0 --- 57.9 58.2 58.2 56.0 29.993 0.00 0.00 0 0.00 0 0.0 0.00 0.0 0.049 0.000 72.6 58 57.0 72.6 10.65 .0736 0.000 203 7 100.0 10
9/04/26 10:50p 57.8 57.9 57.8 95 56.4 0.0 NE 0.00 3.0 E 57.8 58.1 58.1 55.9 29.992 0.00 0.00 0 0.00 0 0.0 0.00 0.0 0.050 0.000 72.6 58 57.0 72.6 10.65 .0736 0.000 204 7 100.0 10
9/04/26 11:00p 57.7 57.8 57.7 95 56.3 1.0 ENE 0.17 4.0 ENE 57.7 58.0 58.0 55.8 29.991 0.00 0.00 0 0.00 0 0.0 0.00 0.0 0.051 0.000 72.6 58 57.0 72.6 10.65 .0736 0.000 203 7 100.0 10
9/04/26 11:10p 57.9 58.0 57.7 96 56.8 0.0 NE 0.00 3.0 NE 57.9 58.2 58.2 56.0 29.992 0.00 0.00 0 0.00 0 0.0 0.00 0.0 0.049 0.000 72.6 58 57.0 72.6 10.65 .0736 0.000 204 7 100.0 10
9/04/26 11:20p 57.8 58.0 57.8 95 56.4 0.0 NNE 0.00 3.0 NE 57.8 58.1 58.1 55.9 29.994 0.00 0.00 0 0.00 0 0.0 0.00 0.0 0.050 0.000 72.6 58 57.0 72.6 10.65 .0736 0.000 203 7 100.0 10
9/04/26 11:30p 57.8 57.9 57.8 96 56.7 0.0 --- 0.00 0.0 --- 57.8 58.1 58.1 55.9 29.995 0.00 0.00 0 0.00 0 0.0 0.00 0.0 0.050 0.000 72.6 58 57.0 72.6 10.65 .0736 0.000 202 7 100.0 10
9/04/26 11:40p 57.7 57.8 57.7 95 56.3 0.0 --- 0.00 0.0 --- 57.7 58.0 58.0 55.8 29.998 0.00 0.00 0 0.00 0 0.0 0.00 0.0 0.051 0.000 72.6 58 57.0 72.6 10.65 .0736 0.000 203 7 100.0 10
9/04/26 11:50p 57.7 57.7 57.6 95 56.3 0.0 NNE 0.00 1.0 NNE 57.7 58.0 58.0 55.8 29.997 0.00 0.00 0 0.00 0 0.0 0.00 0.0 0.051 0.000 72.6 58 57.0 72.6 10.65 .0736 0.000 204 7 100.0 10
9/05/26 12:00a 57.5 57.7 57.5 95 56.1 0.0 --- 0.00 0.0 --- 57.5 57.8 57.8 55.6 29.998 0.00 0.00 0 0.00 0 0.0 0.00 0.0 0.052 0.000 72.5 58 56.9 72.5 10.65 .0736 0.000 202 7 100.0 10
9/05/26 12:10a 57.7 57.7 57.5 96 56.6 0.0 NNE 0.00 1.0 NNE 57.7 58.0 58.0 55.8 30.000 0.00 0.00 0 0.00 0 0.0 0.00 0.0 0.051 0.000 72.5 58 56.9 72.5 10.65 .0736 0.000 202 7 100.0 10
9/05/26 12:20a 57.4 57.7 57.4 95 56.0 0.0 NNE 0.00 1.0 NNE 57.4 57.6 57.6 55.4 30.004 0.00 0.00 0 0.00 0 0.0 0.00 0.0 0.053 0.000 72.5 57 56.4 72.4 10.45 .0736 0.000 202 7 100.0 10
9/05/26 12:30a 57.4 57.5 57.4 96 56.3 0.0 --- 0.00 0.0 --- 57.4 57.7 57.7 55.5 30.005 0.00 0.00 0 0.00 0 0.0 0.00 0.0 0.053 0.000 72.5 57 56.4 72.4 10.45 .0736 0.000 204 7 100.0 10
9/05/26 12:40a 57.4 57.5 57.4 96 56.3 0.0 ESE 0.00 1.0 ESE 57.4 57.7 57.7 55.5 30.006 0.00 0.00 0 0.00 0 0.0 0.00 0.0 0.053 0.000 72.5 57 56.4 72.4 10.45 .0736 0.000 201 7 100.0 10
9/05/26 12:50a 57.5 57.5 57.4 96 56.4 0.0 SE 0.00 2.0 SE 57.5 57.8 57.8 55.6 30.007 0.00 0.00 0 0.00 0 0.0 0.00 0.0 0.052 0.000 72.5 57 56.4 72.4 10.45 .0736 0.000 203 7 100.0 10
9/05/26 1:00a 57.3 57.6 57.3 96 56.2 0.0 SSE 0.00 1.0 SSE 57.3 57.6 57.6 55.4 30.009 0.00 0.00 0 0.00 0 0.0 0.00 0.0 0.053 0.000 72.5 57 56.4 72.4 10.45 .0737 0.000 202 7 100.0 10
9/05/26 1:10a 57.2 57.4 57.2 96 56.1 0.0 SSE 0.00 2.0 SSE 57.2 57.5 57.5 55.3 30.013 0.00 0.00 0 0.00 0 0.0 0.00 0.0 0.054 0.000 72.5 57 56.4 72.4 10.45 .0737 0.000 201 7 100.0 10
9/05/26 1:20a 57.5 57.5 57.2 96 56.4 1.0 S 0.17 6.0 SSW 57.5 57.8 57.8 55.6 30.014 0.00 0.00 0 0.00 0 0.0 0.00 0.0 0.052 0.000 72.4 57 56.3 72.3 10.45 .0737 0.000 204 7 100.0 10
9/05/26 1:30a 57.5 57.6 57.4 96 56.4 2.0 S 0.33 6.0 SSW 57.5 57.8 57.8 55.6 30.016 0.00 0.00 0 0.00 0 0.0 0.00 0.0 0.052 0.000 72.4 57 56.3 72.3 10.45 .0737 0.000 201 7 100.0 10
9/05/26 1:40a 57.3 57.5 57.3 96 56.2 0.0 S 0.00 1.0 S 57.3 57.6 57.6 55.4 30.016 0.00 0.00 0 0.00 0 0.0 0.00 0.0 0.053 0.000 72.4 57 56.3 72.3 10.45 .0737 0.000 204 7 100.0 10
9/05/26 1:50a 57.2 57.3 57.2 96 56.1 0.0 S 0.00 1.0 S 57.2 57.5 57.5 55.3 30.015 0.00 0.00 0 0.00 0 0.0 0.00 0.0 0.054 0.000 72.4 57 56.3 72.3 10.45 .0737 0.000 203 7 100.0 10
9/05/26 2:00a 57.2 57.3 57.2 96 56.1 0.0 S 0.00 1.0 S 57.2 57.5 57.5 55.3 30.015 0.00 0.00 0 0.00 0 0.0 0.00 0.0 0.054 0.000 72.3 57 56.2 72.1 10.46 .0737 0.000 203 7 100.0 10
9/05/26 2:10a 57.4 57.4 57.2 96 56.3 0.0 S 0.00 1.0 S 57.4 57.7 57.7 55.5 30.019 0.00 0.00 0 0.00 0 0.0 0.00 0.0 0.053 0.000 72.3 57 56.2 72.1 10.46 .0737 0.000 203 7 100.0 10
9/05/26 2:20a 57.4 57.5 57.3 97 56.6 0.0 S 0.00 1.0 S 57.4 57.7 57.7 55.5 30.020 0.00 0.00 0 0.00 0 0.0 0.00 0.0 0.053 0.000 72.3 57 56.2 72.1 10.46 .0737 0.000 203 7 100.0 10
9/05/26 2:30a 57.5 57.5 57.4 97 56.7 1.0 SSE 0.17 4.0 SSE 57.5 57.8 57.8 55.6 30.021 0.00 0.00 0 0.00 0 0.0 0.00 0.0 0.052 0.000 72.3 57 56.2 72.1 10.46 .0737 0.000 203 7 100.0 10
9/05/26 2:40a 57.5 57.6 57.5 97 56.7 0.0 S 0.00 2.0 S 57.5 57.8 57.8 55.6 30.022 0.00 0.00 0 0.00 0 0.0 0.00 0.0 0.052 0.000 72.3 57 56.2 72.1 10.46 .0737 0.000 204 7 100.0 10
9/05/26 2:50a 57.4 57.5 57.4 97 56.6 0.0 S 0.00 4.0 S 57.4 57.7 57.7 55.5 30.021 0.00 0.00 0 0.00 0 0.0 0.00 0.0 0.053 0.000 72.2 57 56.1 72.0 10.46 .0737 0.000 204 7 100.0 10
9/05/26 3:00a 57.4 57.5 57.4 97 56.6 1.0 SSE 0.17 6.0 S 57.4 57.7 57.7 55.5 30.022 0.00 0.00 0 0.00 0 0.0 0.00 0.0 0.053 0.000 72.2 57 56.1 72.0 10.46 .0737 0.000 203 7 100.0 10
9/05/26 3:10a 57.3 57.5 57.3 97 56.5 2.0 S 0.33 5.0 SSE 57.3 57.6 57.6 55.4 30.021 0.00 0.00 0 0.00 0 0.0 0.00 0.0 0.053 0.000 72.2 57 56.1 72.0 10.46 .0737 0.000 202 7 100.0 10
9/05/26 3:20a 57.3 57.4 57.3 97 56.5 1.0 SE 0.17 4.0 S 57.3 57.6 57.6 55.4 30.019 0.00 0.00 0 0.00 0 0.0 0.00 0.0 0.053 0.000 72.2 57 56.1 72.0 10.46 .0737 0.000 202 7 100.0 10
9/05/26 3:30a 57.3 57.3 57.2 97 56.5 0.0 SSE 0.00 1.0 SSE 57.3 57.6 57.6 55.4 30.021 0.00 0.00 0 0.00 0 0.0 0.00 0.0 0.053 0.000 72.2 57 56.1 72.0 10.46 .0737 0.000 203 7 100.0 10
9/05/26 3:40a 57.3 57.3 57.2 97 56.5 0.0 SSE 0.00 1.0 SSE 57.3 57.6 57.6 55.4 30.024 0.00 0.00 0 0.00 0 0.0 0.00 0.0 0.053 0.000 72.2 57 56.1 72.0 10.46 .0737 0.000 202 7 100.0 10
9/05/26 3:50a 57.3 57.3 57.2 97 56.5 0.0 SSE 0.00 3.0 SE 57.3 57.6 57.6 55.4 30.023 0.00 0.00 0 0.00 0 0.0 0.00 0.0 0.053 0.000 72.1 57 56.0 71.8 10.47 .0738 0.000 202 7 100.0 10
9/05/26 4:00a 57.1 57.2 57.1 97 56.3 0.0 SSE 0.00 2.0 SSE 57.1 57.4 57.4 55.2 30.024 0.00 0.00 0 0.00 0 0.0 0.00 0.0 0.055 0.000 72.1 57 56.0 71.8 10.47 .0738 0.000 204 7 100.0 10
9/05/26 4:10a 57.2 57.2 57.1 97 56.4 0.0 SSE 0.00 1.0 SSE 57.2 57.5 57.5 55.3 30.023 0.00 0.00 0 0.00 0 0.0 0.00 0.0 0.054 0.000 72.1 57 56.0 71.8 10.47 .0738 0.000 203 7 100.0 10
9/05/26 4:20a 57.2 57.3 57.2 97 56.4 0.0 SSE 0.00 1.0 SSE 57.2 57.5 57.5 55.3 30.022 0.00 0.00 0 0.00 0 0.0 0.00 0.0 0.054 0.000 72.1 57 56.0 71.8 10.47 .0738 0.000 201 7 100.0 10
9/05/26 4:30a 57.2 57.2 57.2 97 56.4 0.0 E 0.00 1.0 E 57.2 57.5 57.5 55.3 30.025 0.00 0.00 0 0.00 0 0.0 0.00 0.0 0.054 0.000 72.0 57 55.9 71.7 10.47 .0738 0.000 201 7 100.0 10
9/05/26 4:40a 57.2 57.2 57.2 97 56.4 0.0 ESE 0.00 2.0 ESE 57.2 57.5 57.5 55.3 30.026 0.00 0.00 0 0.00 0 0.0 0.00 0.0 0.054 0.000 72.0 57 55.9 71.7 10.47 .0738 0.000 203 7 100.0 10
9/05/26 4:50a 57.1 57.2 57.1 97 56.3 0.0 ESE 0.00 1.0 ESE 57.1 57.4 57.4 55.2 30.022 0.00 0.00 0 0.00 0 0.0 0.00 0.0 0.055 0.000 72.0 57 55.9 71.7 10.47 .0738 0.000 203 7 100.0 10
9/05/26 5:00a 57.0 57.2 57.0 97 56.2 0.0 ESE 0.00 2.0 ESE 57.0 57.3 57.3 55.1 30.022 0.00 0.00 0 0.00 0 0.0 0.00 0.0 0.056 0.000 72.0 57 55.9 71.7 10.47 .0738 0.000 203 7 100.0 10
9/05/26 5:10a 57.0 57.1 57.0 97 56.2 0.0 ESE 0.00 2.0 ESE 57.0 57.3 57.3 55.1 30.026 0.00 0.00 0 0.00 0 0.0 0.00 0.0 0.056 0.000 71.9 57 55.8 71.5 10.47 .0738 0.000 203 7 100.0 10
9/05/26 5:20a 57.0 57.1 57.0 97 56.2 0.0 --- 0.00 0.0 --- 57.0 57.3 57.3 55.1 30.027 0.00 0.00 0 0.00 0 0.0 0.00 0.0 0.056 0.000 71.9 57 55.8 71.5 10.47 .0738 0.000 204 7 100.0 10
9/05/26 5:30a 56.9 57.1 56.9 97 56.1 0.0 --- 0.00 0.0 --- 56.9 57.2 57.2 55.0 30.029 0.00 0.00 0 0.00 0 0.0 0.00 0.0 0.056 0.000 71.9 57 55.8 71.5 10.47 .0738 0.000 203 7 100.0 10
9/05/26 5:40a 57.0 57.0 56.9 97 56.2 0.0 ESE 0.00 1.0 ESE 57.0 57.3 57.3 55.1 30.028 0.00 0.00 0 0.00 0 0.0 0.00 0.0 0.056 0.000 71.9 57 55.8 71.5 10.47 .0738 0.000 204 7 100.0 10
9/05/26 5:50a 57.0 57.1 56.9 97 56.2 0.0 ESE 0.00 1.0 ESE 57.0 57.3 57.3 55.1 30.030 0.00 0.00 0 0.00 0 0.0 0.00 0.0 0.056 0.000 71.8 57 55.7 71.4 10.48 .0738 0.000 204 7 100.0 10
9/05/26 6:00a 57.2 57.2 57.0 97 56.4 0.0 ESE 0.00 2.0 ESE 57.2 57.5 57.5 55.3 30.034 0.00 0.00 0 0.00 0 0.0 0.00 0.0 0.054 0.000 71.8 57 55.7 71.4 10.48 .0738 0.000 199 7 100.0 10
9/05/26 6:10a 57.1 57.2 57.0 97 56.3 0.0 SE 0.00 2.0 ESE 57.1 57.4 57.4 55.2 30.031 0.00 0.00 0 0.00 0 0.0 0.00 0.0 0.055 0.000 71.8 57 55.7 71.4 10.48 .0738 0.000 203 7 100.0 10
9/05/26 6:20a 57.0 57.1 57.0 97 56.2 1.0 S 0.17 3.0 S 57.0 57.3 57.3 55.1 30.029 0.00 0.00 0 0.00 0 0.0 0.00 0.0 0.056 0.000 71.7 57 55.7 71.2 10.48 .0738 0.000 203 7 100.0 10
9/05/26 6:30a 57.0 57.1 56.9 97 56.2 0.0 S 0.00 2.0 S 57.0 57.3 57.3 55.1 30.031 0.00 0.00 0 0.00 0 0.0 0.00 0.0 0.056 0.000 71.7 57 55.7 71.2 10.48 .0738 0.000 202 7 100.0 10
9/05/26 6:40a 57.1 57.1 56.9 97 56.3 1.0 S 0.17 2.0 S 57.1 57.4 57.4 55.2 30.034 0.00 0.00 0 0.00 0 0.0 0.00 0.0 0.055 0.000 71.7 58 56.1 71.3 10.68 .0738 0.000 203 7 100.0 10
9/05/26 6:50a 57.1 57.2 57.0 97 56.3 0.0 S 0.00 3.0 S 57.1 57.4 57.4 55.3 30.033 0.00 0.00 6 0.09 9 0.0 0.00 0.0 0.055 0.000 71.7 58 56.1 71.3 10.68 .0738 0.000 205 7 100.0 10
9/05/26 7:00a 56.9 57.1 56.9 97 56.1 0.0 S 0.00 2.0 S 56.9 57.2 57.2 55.3 30.034 0.00 0.00 14 0.20 21 0.0 0.00 0.0 0.056 0.000 71.6 58 56.0 71.2 10.69 .0739 0.000 204 7 100.0 10
9/05/26 7:10a 56.8 56.9 56.8 97 56.0 0.0 S 0.00 2.0 S 56.8 57.1 57.1 55.7 30.031 0.00 0.00 37 0.53 51 0.0 0.00 0.0 0.057 0.000 71.6 58 56.0 71.2 10.69 .0738 0.000 203 7 100.0 10
9/05/26 7:20a 56.9 57.0 56.8 97 56.1 0.0 S 0.00 2.0 S 56.9 57.2 57.2 58.1 30.031 0.00 0.00 58 0.83 70 0.0 0.00 0.0 0.056 0.000 71.7 58 56.1 71.3 10.68 .0738 0.000 205 7 100.0 10
9/05/26 7:30a 57.0 57.0 56.9 97 56.2 0.0 S 0.00 1.0 S 57.0 57.3 57.3 59.1 30.035 0.00 0.00 79 1.13 88 0.0 0.00 0.0 0.056 0.000 71.6 58 56.0 71.2 10.69 .0739 0.000 203 7 100.0 10
9/05/26 7:40a 57.2 57.2 57.0 97 56.4 0.0 S 0.00 2.0 S 57.2 57.5 57.5 59.6 30.037 0.00 0.00 87 1.25 90 0.0 0.00 0.0 0.054 0.000 71.7 58 56.1 71.3 10.68 .0738 0.000 203 7 100.0 10
9/05/26 7:50a 57.1 57.2 57.0 97 56.3 0.0 ESE 0.00 3.0 ESE 57.1 57.4 57.4 59.4 30.039 0.00 0.00 85 1.22 88 0.0 0.00 0.0 0.055 0.000 71.7 58 56.1 71.3 10.68 .0738 0.000 201 7 100.0 10
9/05/26 8:00a 57.2 57.3 57.1 97 56.4 0.0 E 0.00 2.0 E 57.2 57.5 57.5 59.9 30.040 0.00 0.00 98 1.40 111 0.0 0.00 0.0 0.054 0.000 71.7 58 56.1 71.3 10.68 .0738 0.001 204 7 100.0 10
9/05/26 8:10a 57.5 57.5 57.2 97 56.7 0.0 ESE 0.00 2.0 ESE 57.5 57.8 57.8 61.6 30.040 0.00 0.00 138 1.98 148 0.0 0.00 0.0 0.052 0.000 71.7 58 56.1 71.3 10.68 .0738 0.000 203 7 100.0 10
9/05/26 8:20a 57.7 57.7 57.4 97 56.9 0.0 E 0.00 3.0 E 57.7 58.0 58.0 61.9 30.041 0.00 0.00 147 2.11 163 0.0 0.00 0.0 0.051 0.000 71.8 58 56.2 71.5 10.68 .0738 0.000 203 7 100.0 10
9/05/26 8:30a 57.9 57.9 57.7 97 57.1 0.0 E 0.00 2.0 E 57.9 58.2 58.2 62.0 30.043 0.00 0.00 145 2.08 158 0.0 0.00 0.0 0.049 0.000 71.8 58 56.2 71.5 10.68 .0738 0.000 201 7 100.0 10
9/05/26 8:40a 58.1 58.1 57.8 97 57.3 0.0 ESE 0.00 2.0 ESE 58.1 58.4 58.4 63.8 30.045 0.00 0.00 198 2.84 251 0.4 0.03 0.5 0.048 0.000 71.9 58 56.3 71.6 10.67 .0738 0.000 204 7 100.0 10
9/05/26 8:50a 57.8 58.2 57.8 97 57.0 1.0 S 0.17 6.0 SSE 57.8 58.1 58.1 63.4 30.042 0.00 0.00 204 2.92 214 0.5 0.04 0.6 0.050 0.000 71.9 57 55.8 71.5 10.47 .0738 0.000 203 7 100.0 10
9/05/26 9:00a 57.7 57.8 57.7 97 56.9 2.0 SSW 0.33 5.0 SW 57.7 58.0 58.0 64.0 30.043 0.00 0.00 234 3.35 316 0.6 0.04 0.6 0.051 0.000 72.0 57 55.9 71.7 10.47 .0738 0.004 203 7 100.0 10
9/05/26 9:10a 57.5 57.8 57.5 97 56.7 2.0 SW 0.33 6.0 SSW 57.5 57.8 57.8 61.2 30.043 0.00 0.00 156 2.24 174 0.6 0.04 0.6 0.052 0.000 72.0 57 55.9 71.7 10.47 .0738 0.000 203 7 100.0 10
9/05/26 9:20a 56.9 57.5 56.8 97 56.1 5.0 SW 0.83 10.0 SW 56.3 57.2 56.6 58.4 30.046 0.00 0.00 109 1.56 135 0.3 0.02 0.5 0.056 0.000 72.0 57 55.9 71.7 10.47 .0738 0.000 203 7 100.0 10
9/05/26 9:30a 56.7 56.9 56.7 97 55.9 4.0 SW 0.67 8.0 S 56.6 57.0 56.9 59.2 30.046 0.00 0.00 129 1.85 158 0.6 0.04 0.7 0.058 0.000 72.0 57 55.9 71.7 10.47 .0738 0.000 202 7 100.0 10
9/05/26 9:40a 56.7 56.8 56.7 97 55.9 3.0 S 0.50 6.0 SSE 56.7 57.0 57.0 59.9 30.046 0.00 0.00 152 2.18 169 0.7 0.05 0.8 0.058 0.000 72.1 57 56.0 71.8 10.47 .0738 0.000 202 7 100.0 10
9/05/26 9:50a 56.9 57.0 56.7 97 56.1 2.0 S 0.33 5.0 SSE 56.9 57.2 57.2 60.1 30.046 0.00 0.00 155 2.22 163 0.8 0.06 0.9 0.056 0.000 72.1 57 56.0 71.8 10.47 .0738 0.000 202 7 100.0 10
9/05/26 10:00a 57.1 57.2 56.9 98 56.5 2.0 SSW 0.33 5.0 SSE 57.1 57.4 57.4 60.0 30.047 0.00 0.00 150 2.15 183 1.0 0.07 1.3 0.055 0.000 72.2 57 56.1 72.0 10.46 .0738 0.003 204 7 100.0 10
9/05/26 10:10a 57.2 57.2 57.1 98 56.6 2.0 S 0.33 6.0 S 57.2 57.5 57.5 61.8 30.045 0.00 0.00 220 3.15 272 1.5 0.11 1.7 0.054 0.000 72.3 57 56.2 72.1 10.46 .0738 0.000 203 7 100.0 10
9/05/26 10:20a 57.3 57.3 57.1 98 56.7 4.0 SW 0.67 7.0 SSW 57.3 57.6 57.6 63.4 30.048 0.00 0.00 281 4.03 297 1.7 0.12 1.8 0.053 0.000 72.3 57 56.2 72.1 10.46 .0738 0.000 203 7 100.0 10
9/05/26 10:30a 57.2 57.3 57.2 98 56.6 3.0 SW 0.50 7.0 S 57.2 57.5 57.5 59.5 30.050 0.00 0.00 137 1.96 195 1.4 0.10 1.4 0.054 0.000 72.3 57 56.2 72.1 10.46 .0738 0.000 202 7 100.0 10
9/05/26 10:40a 57.4 57.4 57.2 98 56.8 4.0 SW 0.67 7.0 ESE 57.4 57.7 57.7 64.3 30.049 0.00 0.00 331 4.74 591 2.0 0.14 2.6 0.053 0.000 72.3 57 56.2 72.1 10.46 .0738 0.000 201 7 100.0 10
9/05/26 10:50a 57.6 57.7 57.4 98 57.0 5.0 SSW 0.83 10.0 SSE 57.1 57.9 57.4 68.3 30.051 0.00 0.00 678 9.72 722 2.9 0.21 3.0 0.051 0.000 72.4 57 56.3 72.3 10.45 .0738 0.000 201 7 100.0 10
9/05/26 11:00a 57.9 57.9 57.6 98 57.3 5.0 SSW 0.83 8.0 SSE 57.5 58.3 57.9 68.7 30.051 0.00 0.00 622 8.92 738 3.0 0.21 3.3 0.049 0.000 72.4 57 56.3 72.3 10.45 .0738 0.008 204 7 100.0 10
9/05/26 11:10a 57.9 57.9 57.8 98 57.3 4.0 SSW 0.67 7.0 SSE 57.9 58.3 58.3 69.1 30.049 0.00 0.00 624 8.95 742 3.2 0.23 3.8 0.049 0.000 72.5 57 56.4 72.4 10.45 .0738 0.000 202 7 100.0 10
9/05/26 11:20a 57.8 58.0 57.8 98 57.2 4.0 S 0.67 7.0 SSW 57.8 58.2 58.2 68.4 30.049 0.00 0.00 762 10.92 874 3.7 0.26 3.8 0.050 0.000 72.6 57 56.5 72.6 10.45 .0737 0.000 203 7 100.0 10
9/05/26 11:30a 57.8 58.0 57.8 98 57.2 6.0 SSW 1.00 10.0 SSE 57.0 58.2 57.4 68.5 30.050 0.00 0.00 729 10.45 800 3.7 0.26 3.8 0.050 0.000 72.6 58 57.0 72.6 10.65 .0737 0.000 203 7 100.0 10
9/05/26 11:40a 57.9 57.9 57.7 98 57.3 6.0 SSW 1.00 9.0 SSE 57.1 58.3 57.5 68.6 30.051 0.00 0.00 739 10.59 814 3.9 0.28 4.1 0.049 0.000 72.6 58 57.0 72.6 10.65 .0737 0.000 203 7 100.0 10
9/05/26 11:50a 57.9 58.0 57.8 97 57.1 6.0 S 1.00 10.0 S 57.1 58.2 57.4 68.2 30.052 0.00 0.00 845 12.11 865 4.2 0.30 4.3 0.049 0.000 72.6 58 57.0 72.6 10.65 .0737 0.000 205 7 100.0 10
9/05/26 12:00p 58.1 58.2 57.9 97 57.3 5.0 S 0.83 8.0 ESE 57.7 58.4 58.0 69.2 30.051 0.00 0.00 764 10.95 777 3.8 0.27 4.3 0.048 0.000 72.5 58 56.9 72.5 10.65 .0737 0.015 203 7 100.0 10
9/05/26 12:10p 58.3 58.4 58.0 97 57.5 5.0 S 0.83 8.0 SE 58.0 58.7 58.4 69.6 30.050 0.00 0.00 770 11.04 860 4.1 0.29 4.4 0.047 0.000 72.5 58 56.9 72.5 10.65 .0737 0.000 202 7 100.0 10
9/05/26 12:20p 58.4 58.5 58.2 97 57.6 6.0 S 1.00 10.0 SSE 57.7 58.8 58.1 68.3 30.051 0.00 0.00 840 12.04 914 4.6 0.33 4.8 0.046 0.000 72.5 58 56.9 72.5 10.65 .0737 0.000 204 7 100.0 10
9/05/26 12:30p 58.5 58.5 58.4 97 57.7 6.0 SSW 1.00 11.0 SSE 57.8 58.9 58.2 64.6 30.049 0.00 0.00 350 5.02 441 3.5 0.25 4.5 0.045 0.000 72.4 58 56.8 72.3 10.65 .0737 0.000 202 7 100.0 10
9/05/26 12:40p 58.5 58.6 58.5 97 57.7 5.0 SW 0.83 8.0 SSE 58.2 58.9 58.6 64.6 30.049 0.00 0.00 332 4.76 485 3.3 0.24 4.3 0.045 0.000 72.5 58 56.9 72.5 10.65 .0737 0.000 203 7 100.0 10
9/05/26 12:50p 59.0 59.0 58.5 97 58.2 5.0 SW 0.83 8.0 WSW 58.8 59.4 59.2 69.9 30.052 0.00 0.00 891 12.77 919 5.0 0.36 5.1 0.042 0.000 72.5 58 56.9 72.5 10.65 .0737 0.000 204 7 100.0 10
9/05/26 1:00p 59.1 59.2 59.0 97 58.2 4.0 SW 0.67 6.0 SW 59.1 59.5 59.5 70.0 30.051 0.00 0.00 846 12.13 888 4.8 0.34 5.0 0.041 0.000 72.5 58 56.9 72.5 10.65 .0737 0.014 202 7 100.0 10
9/05/26 1:10p 59.2 59.4 59.0 97 58.3 4.0 SW 0.67 6.0 SW 59.2 59.6 59.6 71.0 30.050 0.00 0.00 747 10.71 882 4.8 0.34 5.2 0.040 0.000 72.7 58 57.1 72.8 10.64 .0737 0.000 203 7 100.0 10
9/05/26 1:20p 58.8 59.1 58.8 97 58.0 4.0 SW 0.67 7.0 WSW 58.8 59.2 59.2 70.1 30.050 0.00 0.00 830 11.90 884 5.1 0.36 5.5 0.043 0.000 72.8 58 57.2 72.9 10.64 .0737 0.000 203 7 100.0 10
9/05/26 1:30p 59.5 59.5 58.7 97 58.6 2.0 SW 0.33 5.0 SW 59.5 60.0 60.0 71.2 30.045 0.00 0.00 812 11.64 828 5.2 0.37 5.3 0.038 0.000 72.6 58 57.0 72.6 10.65 .0737 0.000 199 7 100.0 10
9/05/26 1:40p 59.3 59.7 59.3 96 58.2 3.0 SW 0.50 4.0 SW 59.3 59.7 59.7 71.1 30.047 0.00 0.00 754 10.81 800 5.2 0.37 5.3 0.040 0.000 72.3 59 57.2 72.3 10.86 .0737 0.000 203 7 100.0 10
9/05/26 1:50p 59.7 59.7 59.3 96 58.6 3.0 WSW 0.50 5.0 WSW 59.7 60.1 60.1 71.4 30.046 0.00 0.00 795 11.40 805 5.1 0.36 5.2 0.037 0.000 72.1 59 57.0 72.0 10.87 .0738 0.000 204 7 100.0 10
9/05/26 2:00p 59.5 59.7 59.3 96 58.4 3.0 WSW 0.50 5.0 WSW 59.5 59.9 59.9 71.2 30.046 0.00 0.00 734 10.52 784 4.7 0.34 5.0 0.038 0.000 72.2 59 57.1 72.1 10.86 .0738 0.016 202 7 100.0 10
9/05/26 2:10p 59.5 59.7 59.2 96 58.4 3.0 WSW 0.50 5.0 WSW 59.5 59.9 59.9 71.0 30.046 0.00 0.00 693 9.93 773 4.6 0.33 4.8 0.038 0.000 72.6 59 57.4 72.7 10.85 .0737 0.000 203 7 100.0 10
9/05/26 2:20p 59.8 59.8 59.5 96 58.7 3.0 SW 0.50 5.0 SW 59.8 60.2 60.2 71.3 30.045 0.00 0.00 786 11.27 830 4.8 0.34 4.9 0.036 0.000 72.9 59 57.7 73.2 10.83 .0736 0.000 204 7 100.0 10
9/05/26 2:30p 60.1 60.2 59.7 96 59.0 2.0 SW 0.33 3.0 SW 60.1 60.5 60.5 71.8 30.044 0.00 0.00 729 10.45 751 4.6 0.33 4.8 0.034 0.000 73.1 59 57.9 73.4 10.83 .0736 0.000 202 7 100.0 10
9/05/26 2:40p 60.7 60.8 60.1 95 59.3 1.0 SW 0.17 3.0 SW 60.7 61.2 61.2 72.5 30.041 0.00 0.00 723 10.36 728 4.5 0.32 4.6 0.030 0.000 73.4 59 58.2 73.8 10.81 .0735 0.000 204 7 100.0 10
9/05/26 2:50p 60.4 60.7 60.2 95 59.0 3.0 SW 0.50 5.0 SW 60.4 60.8 60.8 72.0 30.041 0.00 0.00 714 10.24 717 4.3 0.31 4.4 0.032 0.000 73.5 59 58.3 74.0 10.81 .0735 0.000 202 7 100.0 10
9/05/26 3:00p 60.0 60.5 59.9 95 58.6 3.0 SW 0.50 5.0 SW 60.0 60.4 60.4 70.1 30.042 0.00 0.00 531 7.61 756 3.5 0.25 4.2 0.035 0.000 73.7 59 58.5 74.2 10.80 .0735 0.014 205 7 100.0 10
9/05/26 3:10p 59.9 60.0 59.6 95 58.5 3.0 SW 0.50 4.0 SW 59.9 60.3 60.3 69.5 30.041 0.00 0.00 491 7.04 798 3.6 0.26 4.2 0.035 0.000 73.8 59 58.6 74.3 10.80 .0735 0.000 204 7 100.0 10
9/05/26 3:20p 60.4 60.4 59.9 95 59.0 1.0 SW 0.17 4.0 SW 60.4 60.8 60.8 71.1 30.039 0.00 0.00 565 8.10 766 3.4 0.24 4.0 0.032 0.000 73.9 59 58.7 74.5 10.79 .0734 0.000 203 7 100.0 10
9/05/26 3:30p 60.0 60.4 59.9 95 58.6 1.0 SW 0.17 3.0 SW 60.0 60.4 60.4 69.5 30.036 0.00 0.00 471 6.75 661 3.2 0.23 3.8 0.035 0.000 74.0 59 58.8 74.6 10.79 .0734 0.000 204 7 100.0 10
9/05/26 3:40p 60.4 60.4 59.9 95 59.0 1.0 SW 0.17 3.0 SW 60.4 60.8 60.8 71.6 30.035 0.00 0.00 599 8.59 684 3.3 0.24 3.6 0.032 0.000 74.1 58 58.4 74.6 10.59 .0734 0.000 204 7 100.0 10
9/05/26 3:50p 60.2 60.5 60.1 94 58.5 2.0 SW 0.33 3.0 SW 60.2 60.6 60.6 71.6 30.032 0.00 0.00 653 9.36 700 3.2 0.23 3.3 0.033 0.000 74.2 58 58.5 74.7 10.58 .0734 0.000 202 7 100.0 10
9/05/26 4:00p 60.2 60.4 60.2 93 58.2 2.0 SW 0.33 4.0 SW 60.2 60.6 60.6 71.5 30.029 0.00 0.00 600 8.60 621 2.9 0.21 3.0 0.033 0.000 74.4 58 58.7 75.0 10.57 .0733 0.012 202 7 100.0 10
9/05/26 4:10p 60.4 60.4 60.2 93 58.4 2.0 SW 0.33 3.0 SW 60.4 60.8 60.8 71.6 30.025 0.00 0.00 569 8.16 578 2.6 0.19 2.7 0.032 0.000 74.5 58 58.8 75.1 10.57 .0733 0.000 203 7 100.0 10